sensor_id;sensor_type;location;lat;lon;timestamp;pressure;altitude;pressure_sealevel;temperature;humidity
68077;BME280;54866;53.458;14.540;2023-06-14T00:00:46;101026.62;;;14.07;74.18
68077;BME280;54866;53.458;14.540;2023-06-14T00:03:17;101025.04;;;14.03;74.15
68077;BME280;54866;53.458;14.540;2023-06-14T00:05:48;101025.45;;;14.00;74.20
68077;BME280;54866;53.458;14.540;2023-06-14T00:08:18;101027.06;;;13.98;73.96
68077;BME280;54866;53.458;14.540;2023-06-14T00:10:49;101033.33;;;13.97;74.08
68077;BME280;54866;53.458;14.540;2023-06-14T00:13:19;101029.30;;;13.97;74.37
68077;BME280;54866;53.458;14.540;2023-06-14T00:15:48;101031.32;;;13.96;74.44
68077;BME280;54866;53.458;14.540;2023-06-14T00:18:21;101024.46;;;13.95;74.53
68077;BME280;54866;53.458;14.540;2023-06-14T00:20:54;101023.84;;;13.94;74.49
68077;BME280;54866;53.458;14.540;2023-06-14T00:23:24;101031.34;;;13.94;74.70
68077;BME280;54866;53.458;14.540;2023-06-14T00:25:54;101028.65;;;13.92;74.73
68077;BME280;54866;53.458;14.540;2023-06-14T00:28:23;101035.55;;;13.90;75.08
68077;BME280;54866;53.458;14.540;2023-06-14T00:30:53;101038.09;;;13.90;74.94
68077;BME280;54866;53.458;14.540;2023-06-14T00:33:22;101035.57;;;13.88;75.37
68077;BME280;54866;53.458;14.540;2023-06-14T00:35:52;101031.64;;;13.86;75.25
68077;BME280;54866;53.458;14.540;2023-06-14T00:38:23;101030.30;;;13.85;75.47
68077;BME280;54866;53.458;14.540;2023-06-14T00:40:52;101031.73;;;13.83;75.42
68077;BME280;54866;53.458;14.540;2023-06-14T00:43:22;101031.98;;;13.82;75.56
68077;BME280;54866;53.458;14.540;2023-06-14T00:45:51;101031.11;;;13.82;75.65
68077;BME280;54866;53.458;14.540;2023-06-14T00:48:21;101031.16;;;13.81;75.64
68077;BME280;54866;53.458;14.540;2023-06-14T00:50:53;101026.21;;;13.81;75.78
68077;BME280;54866;53.458;14.540;2023-06-14T00:53:24;101025.77;;;13.80;75.87
68077;BME280;54866;53.458;14.540;2023-06-14T00:55:53;101025.73;;;13.79;75.95
68077;BME280;54866;53.458;14.540;2023-06-14T00:58:23;101027.35;;;13.78;75.82
68077;BME280;54866;53.458;14.540;2023-06-14T01:00:52;101028.48;;;13.79;75.62
68077;BME280;54866;53.458;14.540;2023-06-14T01:03:22;101025.42;;;13.80;75.54
68077;BME280;54866;53.458;14.540;2023-06-14T01:06:00;101029.81;;;13.80;75.20
68077;BME280;54866;53.458;14.540;2023-06-14T01:08:41;101036.03;;;13.82;75.04
68077;BME280;54866;53.458;14.540;2023-06-14T01:11:16;101032.17;;;13.84;74.83
68077;BME280;54866;53.458;14.540;2023-06-14T01:13:48;101029.91;;;13.85;75.12
68077;BME280;54866;53.458;14.540;2023-06-14T01:16:19;101029.45;;;13.87;74.98
68077;BME280;54866;53.458;14.540;2023-06-14T01:18:49;101021.75;;;13.87;75.06
68077;BME280;54866;53.458;14.540;2023-06-14T01:21:25;101022.10;;;13.87;75.00
68077;BME280;54866;53.458;14.540;2023-06-14T01:23:56;101021.70;;;13.88;74.87
68077;BME280;54866;53.458;14.540;2023-06-14T01:26:27;101026.85;;;13.88;74.84
68077;BME280;54866;53.458;14.540;2023-06-14T01:28:57;101027.63;;;13.87;74.77
68077;BME280;54866;53.458;14.540;2023-06-14T01:31:28;101024.94;;;13.85;74.69
68077;BME280;54866;53.458;14.540;2023-06-14T01:34:08;101027.27;;;13.85;74.59
68077;BME280;54866;53.458;14.540;2023-06-14T01:36:40;101033.05;;;13.84;74.53
68077;BME280;54866;53.458;14.540;2023-06-14T01:39:11;101032.95;;;13.83;74.46
68077;BME280;54866;53.458;14.540;2023-06-14T01:41:44;101023.95;;;13.82;74.47
68077;BME280;54866;53.458;14.540;2023-06-14T01:44:16;101019.61;;;13.82;74.57
68077;BME280;54866;53.458;14.540;2023-06-14T01:46:46;101015.89;;;13.82;74.40
68077;BME280;54866;53.458;14.540;2023-06-14T01:49:17;101021.40;;;13.81;74.29
68077;BME280;54866;53.458;14.540;2023-06-14T01:51:47;101017.52;;;13.81;74.27
68077;BME280;54866;53.458;14.540;2023-06-14T01:54:16;101018.23;;;13.81;74.28
68077;BME280;54866;53.458;14.540;2023-06-14T01:56:46;101015.80;;;13.81;74.28
68077;BME280;54866;53.458;14.540;2023-06-14T01:59:15;101013.45;;;13.81;74.45
68077;BME280;54866;53.458;14.540;2023-06-14T02:01:45;101014.41;;;13.82;74.26
68077;BME280;54866;53.458;14.540;2023-06-14T02:04:15;101014.50;;;13.83;74.04
68077;BME280;54866;53.458;14.540;2023-06-14T02:06:44;101013.36;;;13.86;73.88
68077;BME280;54866;53.458;14.540;2023-06-14T02:09:14;101012.45;;;13.89;73.66
68077;BME280;54866;53.458;14.540;2023-06-14T02:11:43;101009.61;;;13.91;73.54
68077;BME280;54866;53.458;14.540;2023-06-14T02:14:13;101009.85;;;13.92;73.47
68077;BME280;54866;53.458;14.540;2023-06-14T02:16:42;101015.03;;;13.94;73.32
68077;BME280;54866;53.458;14.540;2023-06-14T02:19:17;101013.60;;;13.94;73.06
68077;BME280;54866;53.458;14.540;2023-06-14T02:21:47;101013.66;;;13.93;72.97
68077;BME280;54866;53.458;14.540;2023-06-14T02:24:16;101013.38;;;13.93;72.95
68077;BME280;54866;53.458;14.540;2023-06-14T02:26:46;101013.89;;;13.93;72.71
68077;BME280;54866;53.458;14.540;2023-06-14T02:29:15;101008.80;;;13.93;72.81
68077;BME280;54866;53.458;14.540;2023-06-14T02:31:45;101006.83;;;13.92;72.82
68077;BME280;54866;53.458;14.540;2023-06-14T02:34:16;101008.23;;;13.93;72.57
68077;BME280;54866;53.458;14.540;2023-06-14T02:36:48;101009.77;;;13.93;72.66
68077;BME280;54866;53.458;14.540;2023-06-14T02:39:18;101009.33;;;13.94;72.60
68077;BME280;54866;53.458;14.540;2023-06-14T02:41:49;101007.96;;;13.96;72.73
68077;BME280;54866;53.458;14.540;2023-06-14T02:44:20;101010.37;;;13.96;72.77
68077;BME280;54866;53.458;14.540;2023-06-14T02:46:53;101009.61;;;13.97;72.46
68077;BME280;54866;53.458;14.540;2023-06-14T02:49:24;101012.74;;;13.96;72.57
68077;BME280;54866;53.458;14.540;2023-06-14T02:51:53;101008.48;;;13.94;72.31
68077;BME280;54866;53.458;14.540;2023-06-14T02:54:23;101010.11;;;13.93;72.17
68077;BME280;54866;53.458;14.540;2023-06-14T02:56:52;101006.81;;;13.93;72.11
68077;BME280;54866;53.458;14.540;2023-06-14T02:59:22;101006.48;;;13.90;71.88
68077;BME280;54866;53.458;14.540;2023-06-14T03:01:53;101009.83;;;13.88;71.79
68077;BME280;54866;53.458;14.540;2023-06-14T03:04:23;101009.45;;;13.86;71.41
68077;BME280;54866;53.458;14.540;2023-06-14T03:06:54;101016.75;;;13.88;71.27
68077;BME280;54866;53.458;14.540;2023-06-14T03:09:24;101016.20;;;13.91;71.06
68077;BME280;54866;53.458;14.540;2023-06-14T03:11:54;101011.20;;;13.93;70.84
68077;BME280;54866;53.458;14.540;2023-06-14T03:14:24;101009.00;;;13.96;70.73
68077;BME280;54866;53.458;14.540;2023-06-14T03:16:53;101009.77;;;13.97;70.67
68077;BME280;54866;53.458;14.540;2023-06-14T03:19:24;101012.66;;;13.98;70.51
68077;BME280;54866;53.458;14.540;2023-06-14T03:21:54;101013.81;;;13.99;70.45
68077;BME280;54866;53.458;14.540;2023-06-14T03:24:25;101019.64;;;14.02;70.35
68077;BME280;54866;53.458;14.540;2023-06-14T03:26:56;101020.48;;;14.04;70.20
68077;BME280;54866;53.458;14.540;2023-06-14T03:29:26;101021.59;;;14.08;69.98
68077;BME280;54866;53.458;14.540;2023-06-14T03:32:00;101021.85;;;14.13;69.92
68077;BME280;54866;53.458;14.540;2023-06-14T03:34:30;101024.70;;;14.18;69.69
68077;BME280;54866;53.458;14.540;2023-06-14T03:36:59;101026.98;;;14.23;69.36
68077;BME280;54866;53.458;14.540;2023-06-14T03:39:29;101029.88;;;14.28;69.29
68077;BME280;54866;53.458;14.540;2023-06-14T03:41:59;101036.23;;;14.35;69.09
68077;BME280;54866;53.458;14.540;2023-06-14T03:44:29;101034.99;;;14.39;68.96
68077;BME280;54866;53.458;14.540;2023-06-14T03:46:58;101037.28;;;14.45;68.80
68077;BME280;54866;53.458;14.540;2023-06-14T03:49:28;101041.83;;;14.50;68.62
68077;BME280;54866;53.458;14.540;2023-06-14T03:51:57;101039.89;;;14.54;68.60
68077;BME280;54866;53.458;14.540;2023-06-14T03:54:27;101042.16;;;14.56;68.53
68077;BME280;54866;53.458;14.540;2023-06-14T03:56:57;101042.23;;;14.57;68.48
68077;BME280;54866;53.458;14.540;2023-06-14T03:59:26;101050.45;;;14.61;68.43
68077;BME280;54866;53.458;14.540;2023-06-14T04:01:56;101045.64;;;14.63;68.49
68077;BME280;54866;53.458;14.540;2023-06-14T04:04:26;101048.27;;;14.65;68.43
68077;BME280;54866;53.458;14.540;2023-06-14T04:06:58;101051.48;;;14.68;68.43
68077;BME280;54866;53.458;14.540;2023-06-14T04:09:28;101056.28;;;14.72;68.30
68077;BME280;54866;53.458;14.540;2023-06-14T04:11:58;101051.98;;;14.77;68.23
68077;BME280;54866;53.458;14.540;2023-06-14T04:14:27;101052.72;;;14.83;68.15
68077;BME280;54866;53.458;14.540;2023-06-14T04:16:58;101053.50;;;14.88;67.97
68077;BME280;54866;53.458;14.540;2023-06-14T04:19:28;101053.04;;;14.93;67.89
68077;BME280;54866;53.458;14.540;2023-06-14T04:21:58;101057.14;;;14.98;67.73
68077;BME280;54866;53.458;14.540;2023-06-14T04:24:29;101051.64;;;15.06;67.55
68077;BME280;54866;53.458;14.540;2023-06-14T04:27:00;101052.38;;;15.16;67.12
68077;BME280;54866;53.458;14.540;2023-06-14T04:29:30;101055.14;;;15.26;67.09
68077;BME280;54866;53.458;14.540;2023-06-14T04:32:00;101060.37;;;15.36;66.85
68077;BME280;54866;53.458;14.540;2023-06-14T04:34:29;101056.44;;;15.48;66.36
68077;BME280;54866;53.458;14.540;2023-06-14T04:37:00;101054.45;;;15.62;65.88
68077;BME280;54866;53.458;14.540;2023-06-14T04:39:30;101050.80;;;15.78;65.32
68077;BME280;54866;53.458;14.540;2023-06-14T04:42:00;101050.73;;;15.90;64.54
68077;BME280;54866;53.458;14.540;2023-06-14T04:44:31;101046.77;;;15.96;64.24
68077;BME280;54866;53.458;14.540;2023-06-14T04:47:01;101044.35;;;16.07;63.78
68077;BME280;54866;53.458;14.540;2023-06-14T04:49:30;101049.20;;;16.14;63.36
68077;BME280;54866;53.458;14.540;2023-06-14T04:52:00;101054.02;;;16.19;62.86
68077;BME280;54866;53.458;14.540;2023-06-14T04:54:30;101050.49;;;16.22;62.60
68077;BME280;54866;53.458;14.540;2023-06-14T04:57:02;101049.61;;;16.24;62.03
68077;BME280;54866;53.458;14.540;2023-06-14T04:59:31;101047.64;;;16.30;61.74
68077;BME280;54866;53.458;14.540;2023-06-14T05:02:04;101045.73;;;16.40;61.25
68077;BME280;54866;53.458;14.540;2023-06-14T05:04:35;101045.16;;;16.46;60.94
68077;BME280;54866;53.458;14.540;2023-06-14T05:07:08;101042.97;;;16.57;60.92
68077;BME280;54866;53.458;14.540;2023-06-14T05:09:38;101040.52;;;16.72;60.59
68077;BME280;54866;53.458;14.540;2023-06-14T05:12:09;101034.82;;;16.84;59.76
68077;BME280;54866;53.458;14.540;2023-06-14T05:14:39;101040.70;;;16.93;59.28
68077;BME280;54866;53.458;14.540;2023-06-14T05:17:08;101045.52;;;17.04;58.30
68077;BME280;54866;53.458;14.540;2023-06-14T05:19:38;101043.95;;;17.14;57.66
68077;BME280;54866;53.458;14.540;2023-06-14T05:22:08;101043.23;;;17.27;57.06
68077;BME280;54866;53.458;14.540;2023-06-14T05:24:38;101040.84;;;17.40;56.27
68077;BME280;54866;53.458;14.540;2023-06-14T05:27:07;101039.00;;;17.51;55.70
68077;BME280;54866;53.458;14.540;2023-06-14T05:29:37;101039.77;;;17.64;55.34
68077;BME280;54866;53.458;14.540;2023-06-14T05:32:08;101040.37;;;17.81;54.69
68077;BME280;54866;53.458;14.540;2023-06-14T05:34:38;101037.86;;;17.98;53.17
68077;BME280;54866;53.458;14.540;2023-06-14T05:37:07;101037.34;;;18.13;52.53
68077;BME280;54866;53.458;14.540;2023-06-14T05:39:37;101037.36;;;18.23;51.56
68077;BME280;54866;53.458;14.540;2023-06-14T05:42:07;101040.64;;;18.38;51.38
68077;BME280;54866;53.458;14.540;2023-06-14T05:44:37;101038.05;;;18.55;50.95
68077;BME280;54866;53.458;14.540;2023-06-14T05:47:07;101039.98;;;18.78;50.92
68077;BME280;54866;53.458;14.540;2023-06-14T05:49:37;101043.30;;;19.05;50.28
68077;BME280;54866;53.458;14.540;2023-06-14T05:52:09;101034.27;;;19.30;49.10
68077;BME280;54866;53.458;14.540;2023-06-14T05:54:41;101035.43;;;19.49;47.89
68077;BME280;54866;53.458;14.540;2023-06-14T05:57:10;101037.33;;;20.34;46.47
68077;BME280;54866;53.458;14.540;2023-06-14T05:59:40;101040.50;;;22.57;42.82
68077;BME280;54866;53.458;14.540;2023-06-14T06:02:09;101044.05;;;24.70;38.15
68077;BME280;54866;53.458;14.540;2023-06-14T06:04:39;101041.63;;;26.36;35.04
68077;BME280;54866;53.458;14.540;2023-06-14T06:07:09;101036.66;;;27.68;32.85
68077;BME280;54866;53.458;14.540;2023-06-14T06:09:38;101034.27;;;28.79;31.75
68077;BME280;54866;53.458;14.540;2023-06-14T06:12:08;101036.45;;;29.58;29.83
68077;BME280;54866;53.458;14.540;2023-06-14T06:14:38;101038.66;;;30.58;29.09
68077;BME280;54866;53.458;14.540;2023-06-14T06:17:08;101034.94;;;31.55;27.78
68077;BME280;54866;53.458;14.540;2023-06-14T06:19:37;101034.33;;;31.87;26.19
68077;BME280;54866;53.458;14.540;2023-06-14T06:22:07;101037.78;;;30.63;26.43
68077;BME280;54866;53.458;14.540;2023-06-14T06:24:37;101039.23;;;29.39;27.85
68077;BME280;54866;53.458;14.540;2023-06-14T06:27:07;101041.88;;;28.38;29.46
68077;BME280;54866;53.458;14.540;2023-06-14T06:29:37;101051.08;;;27.80;30.01
68077;BME280;54866;53.458;14.540;2023-06-14T06:32:08;101050.91;;;27.16;29.99
68077;BME280;54866;53.458;14.540;2023-06-14T06:34:37;101051.11;;;26.67;31.20
68077;BME280;54866;53.458;14.540;2023-06-14T06:37:08;101048.34;;;26.15;32.45
68077;BME280;54866;53.458;14.540;2023-06-14T06:39:37;101049.52;;;25.62;33.16
68077;BME280;54866;53.458;14.540;2023-06-14T06:42:07;101050.92;;;25.15;33.68
68077;BME280;54866;53.458;14.540;2023-06-14T06:44:37;101054.13;;;24.64;34.69
68077;BME280;54866;53.458;14.540;2023-06-14T06:47:07;101052.73;;;24.40;35.06
68077;BME280;54866;53.458;14.540;2023-06-14T06:49:37;101055.13;;;24.22;35.55
68077;BME280;54866;53.458;14.540;2023-06-14T06:52:08;101055.61;;;23.97;35.92
68077;BME280;54866;53.458;14.540;2023-06-14T06:54:38;101057.05;;;23.88;35.80
68077;BME280;54866;53.458;14.540;2023-06-14T06:57:08;101057.10;;;23.72;36.33
68077;BME280;54866;53.458;14.540;2023-06-14T06:59:39;101056.34;;;23.69;36.71
68077;BME280;54866;53.458;14.540;2023-06-14T07:02:08;101058.05;;;23.63;36.88
68077;BME280;54866;53.458;14.540;2023-06-14T07:04:38;101056.77;;;23.58;36.45
68077;BME280;54866;53.458;14.540;2023-06-14T07:07:08;101058.77;;;23.45;36.63
68077;BME280;54866;53.458;14.540;2023-06-14T07:09:38;101066.12;;;23.41;36.32
68077;BME280;54866;53.458;14.540;2023-06-14T07:12:10;101067.83;;;23.36;36.07
68077;BME280;54866;53.458;14.540;2023-06-14T07:14:39;101066.25;;;23.22;36.24
68077;BME280;54866;53.458;14.540;2023-06-14T07:17:09;101067.51;;;23.10;36.38
68077;BME280;54866;53.458;14.540;2023-06-14T07:19:39;101069.59;;;23.06;36.26
68077;BME280;54866;53.458;14.540;2023-06-14T07:22:08;101067.64;;;23.20;36.00
68077;BME280;54866;53.458;14.540;2023-06-14T07:24:38;101068.83;;;23.24;35.72
68077;BME280;54866;53.458;14.540;2023-06-14T07:27:08;101065.90;;;23.15;35.28
68077;BME280;54866;53.458;14.540;2023-06-14T07:29:39;101061.02;;;23.07;35.24
68077;BME280;54866;53.458;14.540;2023-06-14T07:32:09;101056.95;;;23.05;35.18
68077;BME280;54866;53.458;14.540;2023-06-14T07:34:38;101061.27;;;23.08;35.56
68077;BME280;54866;53.458;14.540;2023-06-14T07:37:08;101064.55;;;23.09;35.91
68077;BME280;54866;53.458;14.540;2023-06-14T07:39:38;101060.63;;;23.24;35.44
68077;BME280;54866;53.458;14.540;2023-06-14T07:42:08;101057.08;;;23.37;35.50
68077;BME280;54866;53.458;14.540;2023-06-14T07:44:38;101056.80;;;23.46;35.06
68077;BME280;54866;53.458;14.540;2023-06-14T07:47:08;101057.73;;;23.57;33.89
68077;BME280;54866;53.458;14.540;2023-06-14T07:49:38;101053.56;;;23.60;32.99
68077;BME280;54866;53.458;14.540;2023-06-14T07:52:08;101052.42;;;23.68;32.25
68077;BME280;54866;53.458;14.540;2023-06-14T07:54:38;101050.48;;;23.86;31.77
68077;BME280;54866;53.458;14.540;2023-06-14T07:57:09;101048.69;;;23.87;31.68
68077;BME280;54866;53.458;14.540;2023-06-14T07:59:38;101049.23;;;23.94;32.09
68077;BME280;54866;53.458;14.540;2023-06-14T08:02:08;101043.57;;;24.07;31.01
68077;BME280;54866;53.458;14.540;2023-06-14T08:04:38;101041.11;;;24.20;30.53
68077;BME280;54866;53.458;14.540;2023-06-14T08:07:08;101045.08;;;24.24;29.79
68077;BME280;54866;53.458;14.540;2023-06-14T08:09:38;101043.33;;;24.25;30.49
68077;BME280;54866;53.458;14.540;2023-06-14T08:12:09;101044.59;;;24.35;31.15
68077;BME280;54866;53.458;14.540;2023-06-14T08:14:42;101038.98;;;24.49;31.64
68077;BME280;54866;53.458;14.540;2023-06-14T08:17:11;101039.74;;;24.65;31.35
68077;BME280;54866;53.458;14.540;2023-06-14T08:19:41;101036.14;;;24.62;31.92
68077;BME280;54866;53.458;14.540;2023-06-14T08:22:10;101030.85;;;24.69;31.61
68077;BME280;54866;53.458;14.540;2023-06-14T08:24:40;101030.94;;;24.70;31.70
68077;BME280;54866;53.458;14.540;2023-06-14T08:27:10;101031.14;;;24.75;32.06
68077;BME280;54866;53.458;14.540;2023-06-14T08:29:41;101025.13;;;24.80;32.10
68077;BME280;54866;53.458;14.540;2023-06-14T08:32:10;101022.66;;;24.73;31.97
68077;BME280;54866;53.458;14.540;2023-06-14T08:34:40;101025.64;;;24.65;32.02
68077;BME280;54866;53.458;14.540;2023-06-14T08:37:09;101027.08;;;24.61;31.67
68077;BME280;54866;53.458;14.540;2023-06-14T08:39:39;101015.10;;;24.77;31.72
68077;BME280;54866;53.458;14.540;2023-06-14T08:42:10;101024.74;;;25.06;31.72
68077;BME280;54866;53.458;14.540;2023-06-14T08:44:40;101023.38;;;25.33;31.34
68077;BME280;54866;53.458;14.540;2023-06-14T08:47:10;101023.17;;;25.44;31.47
68077;BME280;54866;53.458;14.540;2023-06-14T08:49:42;101027.38;;;25.43;31.31
68077;BME280;54866;53.458;14.540;2023-06-14T08:52:13;101022.42;;;25.51;30.78
68077;BME280;54866;53.458;14.540;2023-06-14T08:54:46;101021.59;;;25.55;31.00
68077;BME280;54866;53.458;14.540;2023-06-14T08:57:17;101019.62;;;25.63;31.41
68077;BME280;54866;53.458;14.540;2023-06-14T08:59:49;101022.45;;;25.81;31.34
68077;BME280;54866;53.458;14.540;2023-06-14T09:02:20;101015.42;;;25.76;31.01
68077;BME280;54866;53.458;14.540;2023-06-14T09:04:50;101020.67;;;25.72;31.14
68077;BME280;54866;53.458;14.540;2023-06-14T09:07:20;101024.39;;;25.85;30.93
68077;BME280;54866;53.458;14.540;2023-06-14T09:09:49;101025.94;;;25.99;30.21
68077;BME280;54866;53.458;14.540;2023-06-14T09:12:34;101027.70;;;26.20;30.24
68077;BME280;54866;53.458;14.540;2023-06-14T09:15:04;101025.29;;;26.54;29.99
68077;BME280;54866;53.458;14.540;2023-06-14T09:17:36;101030.16;;;26.69;29.39
68077;BME280;54866;53.458;14.540;2023-06-14T09:20:08;101025.57;;;26.84;29.32
68077;BME280;54866;53.458;14.540;2023-06-14T09:22:39;101028.24;;;27.06;29.43
68077;BME280;54866;53.458;14.540;2023-06-14T09:25:10;101021.48;;;27.33;29.11
68077;BME280;54866;53.458;14.540;2023-06-14T09:27:40;101017.29;;;27.43;28.81
68077;BME280;54866;53.458;14.540;2023-06-14T09:30:11;101020.69;;;27.41;28.16
68077;BME280;54866;53.458;14.540;2023-06-14T09:32:41;101016.05;;;27.45;28.27
68077;BME280;54866;53.458;14.540;2023-06-14T09:35:11;101016.27;;;27.58;28.10
68077;BME280;54866;53.458;14.540;2023-06-14T09:37:40;101015.15;;;27.69;28.04
68077;BME280;54866;53.458;14.540;2023-06-14T09:40:11;101012.86;;;27.76;28.36
68077;BME280;54866;53.458;14.540;2023-06-14T09:42:41;101011.83;;;27.79;27.40
68077;BME280;54866;53.458;14.540;2023-06-14T09:45:13;101011.23;;;27.68;28.11
68077;BME280;54866;53.458;14.540;2023-06-14T09:47:48;101007.80;;;27.45;27.81
68077;BME280;54866;53.458;14.540;2023-06-14T09:50:18;100998.71;;;27.19;28.34
68077;BME280;54866;53.458;14.540;2023-06-14T09:52:50;101003.46;;;27.11;28.62
68077;BME280;54866;53.458;14.540;2023-06-14T09:55:21;101008.67;;;27.11;28.64
68077;BME280;54866;53.458;14.540;2023-06-14T09:57:52;101001.43;;;27.14;28.87
68077;BME280;54866;53.458;14.540;2023-06-14T10:00:24;100997.23;;;27.20;28.58
68077;BME280;54866;53.458;14.540;2023-06-14T10:02:57;100988.96;;;27.35;29.03
68077;BME280;54866;53.458;14.540;2023-06-14T10:05:30;100991.42;;;27.67;28.74
68077;BME280;54866;53.458;14.540;2023-06-14T10:08:07;100985.66;;;27.91;27.78
68077;BME280;54866;53.458;14.540;2023-06-14T10:10:40;100985.14;;;27.97;27.69
68077;BME280;54866;53.458;14.540;2023-06-14T10:13:09;100977.77;;;27.98;27.30
68077;BME280;54866;53.458;14.540;2023-06-14T10:15:46;100983.65;;;27.91;27.70
68077;BME280;54866;53.458;14.540;2023-06-14T10:18:22;100979.77;;;27.99;27.70
68077;BME280;54866;53.458;14.540;2023-06-14T10:20:58;100978.46;;;28.23;27.50
68077;BME280;54866;53.458;14.540;2023-06-14T10:23:35;100973.47;;;28.41;27.39
68077;BME280;54866;53.458;14.540;2023-06-14T10:26:06;100970.93;;;28.64;26.62
68077;BME280;54866;53.458;14.540;2023-06-14T10:28:38;100975.66;;;28.60;27.23
68077;BME280;54866;53.458;14.540;2023-06-14T10:31:09;100965.51;;;28.62;26.33
68077;BME280;54866;53.458;14.540;2023-06-14T10:33:48;100970.63;;;28.87;26.23
68077;BME280;54866;53.458;14.540;2023-06-14T10:36:28;100965.56;;;28.93;26.32
68077;BME280;54866;53.458;14.540;2023-06-14T10:39:06;100969.02;;;28.65;26.50
68077;BME280;54866;53.458;14.540;2023-06-14T10:41:38;100972.90;;;28.23;26.71
68077;BME280;54866;53.458;14.540;2023-06-14T10:44:35;100973.42;;;27.86;27.48
68077;BME280;54866;53.458;14.540;2023-06-14T10:47:10;100964.86;;;27.89;27.70
68077;BME280;54866;53.458;14.540;2023-06-14T10:49:42;100972.17;;;28.17;27.96
68077;BME280;54866;53.458;14.540;2023-06-14T10:52:14;100966.85;;;28.41;27.51
68077;BME280;54866;53.458;14.540;2023-06-14T10:55:06;100957.63;;;28.54;26.33
68077;BME280;54866;53.458;14.540;2023-06-14T10:57:40;100960.16;;;28.62;26.49
68077;BME280;54866;53.458;14.540;2023-06-14T11:00:12;100953.81;;;28.64;26.45
68077;BME280;54866;53.458;14.540;2023-06-14T11:06:14;100950.31;;;28.60;26.94
68077;BME280;54866;53.458;14.540;2023-06-14T11:09:16;100937.70;;;28.72;26.14
68077;BME280;54866;53.458;14.540;2023-06-14T11:11:49;100938.98;;;28.70;26.12
68077;BME280;54866;53.458;14.540;2023-06-14T11:14:20;100939.21;;;28.67;26.80
68077;BME280;54866;53.458;14.540;2023-06-14T11:16:51;100931.23;;;28.60;26.67
68077;BME280;54866;53.458;14.540;2023-06-14T11:19:20;100932.75;;;28.45;26.40
68077;BME280;54866;53.458;14.540;2023-06-14T11:21:50;100937.89;;;28.32;26.79
68077;BME280;54866;53.458;14.540;2023-06-14T11:24:21;100935.54;;;28.43;26.52
68077;BME280;54866;53.458;14.540;2023-06-14T11:26:50;100927.33;;;28.64;26.67
68077;BME280;54866;53.458;14.540;2023-06-14T11:29:21;100929.65;;;28.77;26.75
68077;BME280;54866;53.458;14.540;2023-06-14T11:31:51;100922.65;;;28.76;26.58
68077;BME280;54866;53.458;14.540;2023-06-14T11:34:21;100926.34;;;28.75;26.81
68077;BME280;54866;53.458;14.540;2023-06-14T11:36:51;100930.06;;;28.76;26.84
68077;BME280;54866;53.458;14.540;2023-06-14T11:39:25;100921.06;;;28.75;26.24
68077;BME280;54866;53.458;14.540;2023-06-14T11:41:55;100923.59;;;28.67;26.49
68077;BME280;54866;53.458;14.540;2023-06-14T11:44:29;100926.64;;;28.65;26.40
68077;BME280;54866;53.458;14.540;2023-06-14T11:46:59;100923.48;;;28.65;26.52
68077;BME280;54866;53.458;14.540;2023-06-14T11:49:36;100916.76;;;28.58;27.01
68077;BME280;54866;53.458;14.540;2023-06-14T11:52:07;100919.80;;;28.58;27.20
68077;BME280;54866;53.458;14.540;2023-06-14T11:54:36;100915.48;;;28.48;26.64
68077;BME280;54866;53.458;14.540;2023-06-14T11:57:08;100912.38;;;28.37;26.81
68077;BME280;54866;53.458;14.540;2023-06-14T11:59:40;100912.31;;;28.26;27.45
68077;BME280;54866;53.458;14.540;2023-06-14T12:02:15;100904.64;;;28.39;27.65
68077;BME280;54866;53.458;14.540;2023-06-14T12:04:46;100901.31;;;28.55;27.58
68077;BME280;54866;53.458;14.540;2023-06-14T12:07:17;100904.15;;;28.56;27.36
68077;BME280;54866;53.458;14.540;2023-06-14T12:10:08;100905.35;;;28.58;27.63
68077;BME280;54866;53.458;14.540;2023-06-14T12:12:39;100904.25;;;28.35;27.52
68077;BME280;54866;53.458;14.540;2023-06-14T12:15:10;100907.61;;;28.05;28.05
68077;BME280;54866;53.458;14.540;2023-06-14T12:17:41;100910.77;;;27.77;28.52
68077;BME280;54866;53.458;14.540;2023-06-14T12:20:14;100905.50;;;27.54;28.82
68077;BME280;54866;53.458;14.540;2023-06-14T12:22:50;100908.80;;;27.42;28.79
68077;BME280;54866;53.458;14.540;2023-06-14T12:25:28;100907.08;;;27.44;28.99
68077;BME280;54866;53.458;14.540;2023-06-14T12:27:59;100898.92;;;27.59;28.76
68077;BME280;54866;53.458;14.540;2023-06-14T12:30:32;100901.54;;;27.67;29.06
68077;BME280;54866;53.458;14.540;2023-06-14T12:33:02;100904.71;;;27.63;28.66
68077;BME280;54866;53.458;14.540;2023-06-14T12:35:32;100903.63;;;27.56;28.15
68077;BME280;54866;53.458;14.540;2023-06-14T12:38:02;100903.28;;;27.54;28.82
68077;BME280;54866;53.458;14.540;2023-06-14T12:40:32;100902.98;;;27.60;28.66
68077;BME280;54866;53.458;14.540;2023-06-14T12:43:02;100901.86;;;27.64;28.10
68077;BME280;54866;53.458;14.540;2023-06-14T12:45:32;100904.45;;;27.42;28.32
68077;BME280;54866;53.458;14.540;2023-06-14T12:48:02;100906.71;;;27.13;29.30
68077;BME280;54866;53.458;14.540;2023-06-14T12:50:31;100908.33;;;26.84;29.88
68077;BME280;54866;53.458;14.540;2023-06-14T12:53:01;100908.39;;;26.65;30.42
68077;BME280;54866;53.458;14.540;2023-06-14T12:55:31;100906.44;;;26.33;30.37
68077;BME280;54866;53.458;14.540;2023-06-14T12:58:01;100906.61;;;25.95;30.74
68077;BME280;54866;53.458;14.540;2023-06-14T13:00:30;100907.17;;;25.68;30.92
68077;BME280;54866;53.458;14.540;2023-06-14T13:03:00;100904.86;;;25.41;31.49